<?xml version="1.0" encoding="UTF-8" standalone="no" ?>
<gpx xmlns="http://www.topografix.com/GPX/1/1" xmlns:xsi="http://www.w3.org/2001/XMLSchema-instance" xsi:schemaLocation="http://www.topografix.com/GPX/1/1 http://www.topografix.com/GPX/1/1/gpx.xsd" version="1.1" creator="VisuGPX - https://www.visugpx.com">
  <metadata>
    <name>Ancien chemin des Vans, Le vieux st andre</name>
  </metadata>
  <wpt lat="44.31511" lon="4.21657">
    <ele>175</ele>
    <name><![CDATA[Point de passage 1]]></name>
  </wpt>
  <wpt lat="44.31508" lon="4.2167">
    <ele>175</ele>
    <name><![CDATA[Point de passage 2]]></name>
  </wpt>
  <trk>
    <name><![CDATA[vieux st andre]]></name>
    <extensions>
      <line xmlns="http://www.topografix.com/GPX/gpx_style/0/2">
        <color>0000FF</color>
        <width>4</width>
      </line>
    </extensions>
    <trkseg>
      <trkpt lat="44.31511" lon="4.21657">
        <ele>175</ele>
        <time>2026-06-11T07:00:58.000Z</time>
      </trkpt>
      <trkpt lat="44.31515" lon="4.21642">
        <ele>174</ele>
        <time>2026-06-11T07:01:02.000Z</time>
      </trkpt>
      <trkpt lat="44.31535" lon="4.21608">
        <ele>170</ele>
        <time>2026-06-11T07:01:35.000Z</time>
      </trkpt>
      <trkpt lat="44.31533" lon="4.21547">
        <ele>165</ele>
        <time>2026-06-11T07:01:46.000Z</time>
      </trkpt>
      <trkpt lat="44.31538" lon="4.21513">
        <ele>162</ele>
        <time>2026-06-11T07:02:30.000Z</time>
      </trkpt>
      <trkpt lat="44.31528" lon="4.2148">
        <ele>160</ele>
        <time>2026-06-11T07:02:37.000Z</time>
      </trkpt>
      <trkpt lat="44.31493" lon="4.21423">
        <ele>157</ele>
        <time>2026-06-11T07:02:46.000Z</time>
      </trkpt>
      <trkpt lat="44.31474" lon="4.21377">
        <ele>158</ele>
        <time>2026-06-11T07:02:55.000Z</time>
      </trkpt>
      <trkpt lat="44.31497" lon="4.21358">
        <ele>159</ele>
        <time>2026-06-11T07:03:10.000Z</time>
      </trkpt>
      <trkpt lat="44.31515" lon="4.21353">
        <ele>159</ele>
        <time>2026-06-11T07:03:44.000Z</time>
      </trkpt>
      <trkpt lat="44.31588" lon="4.2131">
        <ele>159</ele>
        <time>2026-06-11T07:04:12.000Z</time>
      </trkpt>
      <trkpt lat="44.31626" lon="4.21302">
        <ele>160</ele>
        <time>2026-06-11T07:04:21.000Z</time>
      </trkpt>
      <trkpt lat="44.31694" lon="4.21305">
        <ele>163</ele>
        <time>2026-06-11T07:04:40.000Z</time>
      </trkpt>
      <trkpt lat="44.31751" lon="4.21319">
        <ele>167</ele>
        <time>2026-06-11T07:05:01.000Z</time>
      </trkpt>
      <trkpt lat="44.31779" lon="4.21319">
        <ele>165</ele>
        <time>2026-06-11T07:05:12.000Z</time>
      </trkpt>
      <trkpt lat="44.31796" lon="4.21329">
        <ele>165</ele>
        <time>2026-06-11T07:05:18.000Z</time>
      </trkpt>
      <trkpt lat="44.31828" lon="4.21362">
        <ele>165</ele>
        <time>2026-06-11T07:05:39.000Z</time>
      </trkpt>
      <trkpt lat="44.31845" lon="4.21371">
        <ele>165</ele>
        <time>2026-06-11T07:05:45.000Z</time>
      </trkpt>
      <trkpt lat="44.31897" lon="4.21377">
        <ele>165</ele>
        <time>2026-06-11T07:06:01.000Z</time>
      </trkpt>
      <trkpt lat="44.31945" lon="4.21365">
        <ele>166</ele>
        <time>2026-06-11T07:06:16.000Z</time>
      </trkpt>
      <trkpt lat="44.31985" lon="4.21377">
        <ele>167</ele>
        <time>2026-06-11T07:06:47.000Z</time>
      </trkpt>
      <trkpt lat="44.32116" lon="4.21346">
        <ele>169</ele>
        <time>2026-06-11T07:07:24.000Z</time>
      </trkpt>
      <trkpt lat="44.32128" lon="4.21349">
        <ele>170</ele>
        <time>2026-06-11T07:07:28.000Z</time>
      </trkpt>
      <trkpt lat="44.32155" lon="4.21376">
        <ele>168</ele>
        <time>2026-06-11T07:07:38.000Z</time>
      </trkpt>
      <trkpt lat="44.32201" lon="4.21394">
        <ele>168</ele>
        <time>2026-06-11T07:07:49.000Z</time>
      </trkpt>
      <trkpt lat="44.32265" lon="4.21393">
        <ele>169</ele>
        <time>2026-06-11T07:08:07.000Z</time>
      </trkpt>
      <trkpt lat="44.32313" lon="4.21362">
        <ele>170</ele>
        <time>2026-06-11T07:08:23.000Z</time>
      </trkpt>
      <trkpt lat="44.32342" lon="4.21355">
        <ele>169</ele>
        <time>2026-06-11T07:08:32.000Z</time>
      </trkpt>
      <trkpt lat="44.32377" lon="4.2132">
        <ele>171</ele>
        <time>2026-06-11T07:08:48.000Z</time>
      </trkpt>
      <trkpt lat="44.32396" lon="4.21309">
        <ele>172</ele>
        <time>2026-06-11T07:08:56.000Z</time>
      </trkpt>
      <trkpt lat="44.32481" lon="4.21278">
        <ele>173</ele>
        <time>2026-06-11T07:09:30.000Z</time>
      </trkpt>
      <trkpt lat="44.32506" lon="4.2126">
        <ele>176</ele>
        <time>2026-06-11T07:09:42.000Z</time>
      </trkpt>
      <trkpt lat="44.3258" lon="4.21226">
        <ele>177</ele>
        <time>2026-06-11T07:10:15.000Z</time>
      </trkpt>
      <trkpt lat="44.32633" lon="4.21189">
        <ele>179</ele>
        <time>2026-06-11T07:10:38.000Z</time>
      </trkpt>
      <trkpt lat="44.32667" lon="4.21179">
        <ele>182</ele>
        <time>2026-06-11T07:10:51.000Z</time>
      </trkpt>
      <trkpt lat="44.32721" lon="4.21179">
        <ele>185</ele>
        <time>2026-06-11T07:11:13.000Z</time>
      </trkpt>
      <trkpt lat="44.32733" lon="4.21151">
        <ele>185</ele>
        <time>2026-06-11T07:11:22.000Z</time>
      </trkpt>
      <trkpt lat="44.32773" lon="4.21112">
        <ele>188</ele>
        <time>2026-06-11T07:11:41.000Z</time>
      </trkpt>
      <trkpt lat="44.32783" lon="4.2109">
        <ele>190</ele>
        <time>2026-06-11T07:11:49.000Z</time>
      </trkpt>
      <trkpt lat="44.32797" lon="4.21086">
        <ele>191</ele>
        <time>2026-06-11T07:11:56.000Z</time>
      </trkpt>
      <trkpt lat="44.32818" lon="4.21037">
        <ele>196</ele>
        <time>2026-06-11T07:12:15.000Z</time>
      </trkpt>
      <trkpt lat="44.32827" lon="4.21026">
        <ele>197</ele>
        <time>2026-06-11T07:12:21.000Z</time>
      </trkpt>
      <trkpt lat="44.32914" lon="4.21019">
        <ele>210</ele>
        <time>2026-06-11T07:13:00.000Z</time>
      </trkpt>
      <trkpt lat="44.32934" lon="4.21027">
        <ele>213</ele>
        <time>2026-06-11T07:13:10.000Z</time>
      </trkpt>
      <trkpt lat="44.32948" lon="4.21041">
        <ele>213</ele>
        <time>2026-06-11T07:13:18.000Z</time>
      </trkpt>
      <trkpt lat="44.32969" lon="4.21044">
        <ele>215</ele>
        <time>2026-06-11T07:13:27.000Z</time>
      </trkpt>
      <trkpt lat="44.33018" lon="4.2107">
        <ele>219</ele>
        <time>2026-06-11T07:13:54.000Z</time>
      </trkpt>
      <trkpt lat="44.33045" lon="4.2107">
        <ele>221</ele>
        <time>2026-06-11T07:14:08.000Z</time>
      </trkpt>
      <trkpt lat="44.33084" lon="4.21061">
        <ele>224</ele>
        <time>2026-06-11T07:14:26.000Z</time>
      </trkpt>
      <trkpt lat="44.33105" lon="4.21038">
        <ele>226</ele>
        <time>2026-06-11T07:14:38.000Z</time>
      </trkpt>
      <trkpt lat="44.33151" lon="4.21027">
        <ele>230</ele>
        <time>2026-06-11T07:14:59.000Z</time>
      </trkpt>
      <trkpt lat="44.33196" lon="4.21034">
        <ele>236</ele>
        <time>2026-06-11T07:16:25.000Z</time>
      </trkpt>
      <trkpt lat="44.3321" lon="4.20999">
        <ele>236</ele>
        <time>2026-06-11T07:18:43.000Z</time>
      </trkpt>
      <trkpt lat="44.33216" lon="4.20995">
        <ele>236</ele>
        <time>2026-06-11T07:18:46.000Z</time>
      </trkpt>
      <trkpt lat="44.33249" lon="4.21006">
        <ele>238</ele>
        <time>2026-06-11T07:19:01.000Z</time>
      </trkpt>
      <trkpt lat="44.33313" lon="4.21001">
        <ele>240</ele>
        <time>2026-06-11T07:19:26.000Z</time>
      </trkpt>
      <trkpt lat="44.33373" lon="4.21027">
        <ele>241</ele>
        <time>2026-06-11T07:19:51.000Z</time>
      </trkpt>
      <trkpt lat="44.33417" lon="4.21023">
        <ele>242</ele>
        <time>2026-06-11T07:20:07.000Z</time>
      </trkpt>
      <trkpt lat="44.33459" lon="4.21039">
        <ele>244</ele>
        <time>2026-06-11T07:20:24.000Z</time>
      </trkpt>
      <trkpt lat="44.33451" lon="4.21079">
        <ele>245</ele>
        <time>2026-06-11T07:20:37.000Z</time>
      </trkpt>
      <trkpt lat="44.33455" lon="4.21131">
        <ele>245</ele>
        <time>2026-06-11T07:20:52.000Z</time>
      </trkpt>
      <trkpt lat="44.33447" lon="4.21169">
        <ele>245</ele>
        <time>2026-06-11T07:21:03.000Z</time>
      </trkpt>
      <trkpt lat="44.33459" lon="4.21209">
        <ele>244</ele>
        <time>2026-06-11T07:21:15.000Z</time>
      </trkpt>
      <trkpt lat="44.3346" lon="4.21244">
        <ele>244</ele>
        <time>2026-06-11T07:21:25.000Z</time>
      </trkpt>
      <trkpt lat="44.3345" lon="4.21266">
        <ele>243</ele>
        <time>2026-06-11T07:21:33.000Z</time>
      </trkpt>
      <trkpt lat="44.33433" lon="4.21332">
        <ele>242</ele>
        <time>2026-06-11T07:21:53.000Z</time>
      </trkpt>
      <trkpt lat="44.33403" lon="4.21417">
        <ele>239</ele>
        <time>2026-06-11T07:22:30.000Z</time>
      </trkpt>
      <trkpt lat="44.33407" lon="4.21495">
        <ele>238</ele>
        <time>2026-06-11T07:22:53.000Z</time>
      </trkpt>
      <trkpt lat="44.33383" lon="4.21567">
        <ele>236</ele>
        <time>2026-06-11T07:23:27.000Z</time>
      </trkpt>
      <trkpt lat="44.33393" lon="4.21611">
        <ele>240</ele>
        <time>2026-06-11T07:23:40.000Z</time>
      </trkpt>
      <trkpt lat="44.33427" lon="4.21645">
        <ele>242</ele>
        <time>2026-06-11T07:23:57.000Z</time>
      </trkpt>
      <trkpt lat="44.33466" lon="4.21723">
        <ele>246</ele>
        <time>2026-06-11T07:24:22.000Z</time>
      </trkpt>
      <trkpt lat="44.33471" lon="4.21757">
        <ele>246</ele>
        <time>2026-06-11T07:24:31.000Z</time>
      </trkpt>
      <trkpt lat="44.33478" lon="4.21928">
        <ele>247</ele>
        <time>2026-06-11T07:25:14.000Z</time>
      </trkpt>
      <trkpt lat="44.33489" lon="4.21967">
        <ele>246</ele>
        <time>2026-06-11T07:25:25.000Z</time>
      </trkpt>
      <trkpt lat="44.33485" lon="4.21971">
        <ele>246</ele>
        <time>2026-06-11T07:25:28.000Z</time>
      </trkpt>
      <trkpt lat="44.33474" lon="4.21962">
        <ele>246</ele>
        <time>2026-06-11T07:25:32.000Z</time>
      </trkpt>
      <trkpt lat="44.33454" lon="4.21958">
        <ele>248</ele>
        <time>2026-06-11T07:25:41.000Z</time>
      </trkpt>
      <trkpt lat="44.33345" lon="4.21886">
        <ele>250</ele>
        <time>2026-06-11T07:26:32.000Z</time>
      </trkpt>
      <trkpt lat="44.33296" lon="4.21883">
        <ele>249</ele>
        <time>2026-06-11T07:26:51.000Z</time>
      </trkpt>
      <trkpt lat="44.33221" lon="4.21855">
        <ele>245</ele>
        <time>2026-06-11T07:27:26.000Z</time>
      </trkpt>
      <trkpt lat="44.33176" lon="4.2182">
        <ele>243</ele>
        <time>2026-06-11T07:27:51.000Z</time>
      </trkpt>
      <trkpt lat="44.33126" lon="4.21855">
        <ele>241</ele>
        <time>2026-06-11T07:32:47.000Z</time>
      </trkpt>
      <trkpt lat="44.33121" lon="4.21876">
        <ele>240</ele>
        <time>2026-06-11T07:32:55.000Z</time>
      </trkpt>
      <trkpt lat="44.33141" lon="4.21912">
        <ele>240</ele>
        <time>2026-06-11T07:33:27.000Z</time>
      </trkpt>
      <trkpt lat="44.33131" lon="4.21936">
        <ele>238</ele>
        <time>2026-06-11T07:33:51.000Z</time>
      </trkpt>
      <trkpt lat="44.3314" lon="4.21953">
        <ele>237</ele>
        <time>2026-06-11T07:34:09.000Z</time>
      </trkpt>
      <trkpt lat="44.33136" lon="4.21973">
        <ele>235</ele>
        <time>2026-06-11T07:34:26.000Z</time>
      </trkpt>
      <trkpt lat="44.33148" lon="4.22011">
        <ele>235</ele>
        <time>2026-06-11T07:35:13.000Z</time>
      </trkpt>
      <trkpt lat="44.33123" lon="4.22022">
        <ele>234</ele>
        <time>2026-06-11T07:36:03.000Z</time>
      </trkpt>
      <trkpt lat="44.33132" lon="4.22032">
        <ele>235</ele>
        <time>2026-06-11T07:36:19.000Z</time>
      </trkpt>
      <trkpt lat="44.3313" lon="4.22069">
        <ele>236</ele>
        <time>2026-06-11T07:36:47.000Z</time>
      </trkpt>
      <trkpt lat="44.3314" lon="4.2209">
        <ele>236</ele>
        <time>2026-06-11T07:36:58.000Z</time>
      </trkpt>
      <trkpt lat="44.33166" lon="4.22105">
        <ele>240</ele>
        <time>2026-06-11T07:37:12.000Z</time>
      </trkpt>
      <trkpt lat="44.33175" lon="4.22129">
        <ele>239</ele>
        <time>2026-06-11T07:37:23.000Z</time>
      </trkpt>
      <trkpt lat="44.33139" lon="4.22144">
        <ele>238</ele>
        <time>2026-06-11T07:37:44.000Z</time>
      </trkpt>
      <trkpt lat="44.33095" lon="4.22151">
        <ele>234</ele>
        <time>2026-06-11T07:38:12.000Z</time>
      </trkpt>
      <trkpt lat="44.33058" lon="4.22186">
        <ele>230</ele>
        <time>2026-06-11T07:38:38.000Z</time>
      </trkpt>
      <trkpt lat="44.33025" lon="4.22193">
        <ele>227</ele>
        <time>2026-06-11T07:38:55.000Z</time>
      </trkpt>
      <trkpt lat="44.33014" lon="4.22215">
        <ele>226</ele>
        <time>2026-06-11T07:39:05.000Z</time>
      </trkpt>
      <trkpt lat="44.33007" lon="4.22213">
        <ele>225</ele>
        <time>2026-06-11T07:39:09.000Z</time>
      </trkpt>
      <trkpt lat="44.33003" lon="4.22195">
        <ele>224</ele>
        <time>2026-06-11T07:39:18.000Z</time>
      </trkpt>
      <trkpt lat="44.32995" lon="4.22184">
        <ele>222</ele>
        <time>2026-06-11T07:39:24.000Z</time>
      </trkpt>
      <trkpt lat="44.32993" lon="4.22154">
        <ele>222</ele>
        <time>2026-06-11T07:39:39.000Z</time>
      </trkpt>
      <trkpt lat="44.32982" lon="4.22128">
        <ele>219</ele>
        <time>2026-06-11T07:40:08.000Z</time>
      </trkpt>
      <trkpt lat="44.32978" lon="4.22089">
        <ele>217</ele>
        <time>2026-06-11T07:40:22.000Z</time>
      </trkpt>
      <trkpt lat="44.32972" lon="4.2208">
        <ele>216</ele>
        <time>2026-06-11T07:40:26.000Z</time>
      </trkpt>
      <trkpt lat="44.32965" lon="4.22085">
        <ele>215</ele>
        <time>2026-06-11T07:40:29.000Z</time>
      </trkpt>
      <trkpt lat="44.32961" lon="4.22105">
        <ele>215</ele>
        <time>2026-06-11T07:40:37.000Z</time>
      </trkpt>
      <trkpt lat="44.32944" lon="4.22106">
        <ele>212</ele>
        <time>2026-06-11T07:40:46.000Z</time>
      </trkpt>
      <trkpt lat="44.32943" lon="4.2213">
        <ele>213</ele>
        <time>2026-06-11T07:40:55.000Z</time>
      </trkpt>
      <trkpt lat="44.32922" lon="4.22146">
        <ele>210</ele>
        <time>2026-06-11T07:41:06.000Z</time>
      </trkpt>
      <trkpt lat="44.32906" lon="4.22182">
        <ele>209</ele>
        <time>2026-06-11T07:41:21.000Z</time>
      </trkpt>
      <trkpt lat="44.32892" lon="4.22188">
        <ele>206</ele>
        <time>2026-06-11T07:41:28.000Z</time>
      </trkpt>
      <trkpt lat="44.32886" lon="4.22162">
        <ele>204</ele>
        <time>2026-06-11T07:41:36.000Z</time>
      </trkpt>
      <trkpt lat="44.32877" lon="4.2216">
        <ele>203</ele>
        <time>2026-06-11T07:41:40.000Z</time>
      </trkpt>
      <trkpt lat="44.32874" lon="4.22202">
        <ele>204</ele>
        <time>2026-06-11T07:41:55.000Z</time>
      </trkpt>
      <trkpt lat="44.32867" lon="4.22206">
        <ele>203</ele>
        <time>2026-06-11T07:41:58.000Z</time>
      </trkpt>
      <trkpt lat="44.32849" lon="4.22201">
        <ele>199</ele>
        <time>2026-06-11T07:42:07.000Z</time>
      </trkpt>
      <trkpt lat="44.32833" lon="4.22206">
        <ele>197</ele>
        <time>2026-06-11T07:42:14.000Z</time>
      </trkpt>
      <trkpt lat="44.32812" lon="4.22251">
        <ele>195</ele>
        <time>2026-06-11T07:42:32.000Z</time>
      </trkpt>
      <trkpt lat="44.3279" lon="4.22258">
        <ele>192</ele>
        <time>2026-06-11T07:42:42.000Z</time>
      </trkpt>
      <trkpt lat="44.32754" lon="4.22296">
        <ele>189</ele>
        <time>2026-06-11T07:49:31.000Z</time>
      </trkpt>
      <trkpt lat="44.32756" lon="4.22292">
        <ele>190</ele>
        <time>2026-06-11T07:54:35.000Z</time>
      </trkpt>
      <trkpt lat="44.32751" lon="4.22293">
        <ele>189</ele>
        <time>2026-06-11T07:54:48.000Z</time>
      </trkpt>
      <trkpt lat="44.32734" lon="4.22271">
        <ele>187</ele>
        <time>2026-06-11T07:55:00.000Z</time>
      </trkpt>
      <trkpt lat="44.32718" lon="4.22233">
        <ele>185</ele>
        <time>2026-06-11T07:55:12.000Z</time>
      </trkpt>
      <trkpt lat="44.32693" lon="4.22215">
        <ele>183</ele>
        <time>2026-06-11T07:55:23.000Z</time>
      </trkpt>
      <trkpt lat="44.326" lon="4.22278">
        <ele>185</ele>
        <time>2026-06-11T07:56:01.000Z</time>
      </trkpt>
      <trkpt lat="44.32547" lon="4.22273">
        <ele>184</ele>
        <time>2026-06-11T07:56:19.000Z</time>
      </trkpt>
      <trkpt lat="44.32538" lon="4.22268">
        <ele>184</ele>
        <time>2026-06-11T07:56:22.000Z</time>
      </trkpt>
      <trkpt lat="44.32514" lon="4.22238">
        <ele>181</ele>
        <time>2026-06-11T07:56:32.000Z</time>
      </trkpt>
      <trkpt lat="44.32491" lon="4.22227">
        <ele>180</ele>
        <time>2026-06-11T07:56:38.000Z</time>
      </trkpt>
      <trkpt lat="44.32465" lon="4.22222">
        <ele>180</ele>
        <time>2026-06-11T07:56:45.000Z</time>
      </trkpt>
      <trkpt lat="44.32414" lon="4.22234">
        <ele>181</ele>
        <time>2026-06-11T07:57:02.000Z</time>
      </trkpt>
      <trkpt lat="44.32394" lon="4.22233">
        <ele>181</ele>
        <time>2026-06-11T07:57:08.000Z</time>
      </trkpt>
      <trkpt lat="44.32369" lon="4.22243">
        <ele>180</ele>
        <time>2026-06-11T07:57:15.000Z</time>
      </trkpt>
      <trkpt lat="44.32292" lon="4.22245">
        <ele>179</ele>
        <time>2026-06-11T07:57:37.000Z</time>
      </trkpt>
      <trkpt lat="44.32223" lon="4.22256">
        <ele>179</ele>
        <time>2026-06-11T07:57:58.000Z</time>
      </trkpt>
      <trkpt lat="44.322" lon="4.22274">
        <ele>179</ele>
        <time>2026-06-11T07:58:06.000Z</time>
      </trkpt>
      <trkpt lat="44.32188" lon="4.22327">
        <ele>182</ele>
        <time>2026-06-11T07:58:21.000Z</time>
      </trkpt>
      <trkpt lat="44.32178" lon="4.22348">
        <ele>183</ele>
        <time>2026-06-11T07:58:28.000Z</time>
      </trkpt>
      <trkpt lat="44.32158" lon="4.2235">
        <ele>182</ele>
        <time>2026-06-11T07:58:35.000Z</time>
      </trkpt>
      <trkpt lat="44.32071" lon="4.2231">
        <ele>178</ele>
        <time>2026-06-11T07:59:08.000Z</time>
      </trkpt>
      <trkpt lat="44.32044" lon="4.22307">
        <ele>178</ele>
        <time>2026-06-11T07:59:20.000Z</time>
      </trkpt>
      <trkpt lat="44.32029" lon="4.22314">
        <ele>177</ele>
        <time>2026-06-11T07:59:26.000Z</time>
      </trkpt>
      <trkpt lat="44.32008" lon="4.22307">
        <ele>176</ele>
        <time>2026-06-11T07:59:33.000Z</time>
      </trkpt>
      <trkpt lat="44.31946" lon="4.22241">
        <ele>171</ele>
        <time>2026-06-11T07:59:56.000Z</time>
      </trkpt>
      <trkpt lat="44.3193" lon="4.22205">
        <ele>171</ele>
        <time>2026-06-11T08:00:01.000Z</time>
      </trkpt>
      <trkpt lat="44.3191" lon="4.22178">
        <ele>172</ele>
        <time>2026-06-11T08:00:06.000Z</time>
      </trkpt>
      <trkpt lat="44.31861" lon="4.22133">
        <ele>174</ele>
        <time>2026-06-11T08:00:25.000Z</time>
      </trkpt>
      <trkpt lat="44.31792" lon="4.22054">
        <ele>174</ele>
        <time>2026-06-11T08:00:59.000Z</time>
      </trkpt>
      <trkpt lat="44.31757" lon="4.22012">
        <ele>172</ele>
        <time>2026-06-11T08:01:15.000Z</time>
      </trkpt>
      <trkpt lat="44.31739" lon="4.2198">
        <ele>169</ele>
        <time>2026-06-11T08:01:21.000Z</time>
      </trkpt>
      <trkpt lat="44.31718" lon="4.21963">
        <ele>169</ele>
        <time>2026-06-11T08:01:25.000Z</time>
      </trkpt>
      <trkpt lat="44.31695" lon="4.21925">
        <ele>168</ele>
        <time>2026-06-11T08:01:31.000Z</time>
      </trkpt>
      <trkpt lat="44.31676" lon="4.21904">
        <ele>168</ele>
        <time>2026-06-11T08:01:36.000Z</time>
      </trkpt>
      <trkpt lat="44.31628" lon="4.21893">
        <ele>171</ele>
        <time>2026-06-11T08:01:52.000Z</time>
      </trkpt>
      <trkpt lat="44.3159" lon="4.21856">
        <ele>171</ele>
        <time>2026-06-11T08:02:08.000Z</time>
      </trkpt>
      <trkpt lat="44.31576" lon="4.21852">
        <ele>172</ele>
        <time>2026-06-11T08:02:12.000Z</time>
      </trkpt>
      <trkpt lat="44.31548" lon="4.21855">
        <ele>175</ele>
        <time>2026-06-11T08:02:23.000Z</time>
      </trkpt>
      <trkpt lat="44.31537" lon="4.21847">
        <ele>176</ele>
        <time>2026-06-11T08:02:28.000Z</time>
      </trkpt>
      <trkpt lat="44.31525" lon="4.21831">
        <ele>178</ele>
        <time>2026-06-11T08:02:35.000Z</time>
      </trkpt>
      <trkpt lat="44.31516" lon="4.21782">
        <ele>180</ele>
        <time>2026-06-11T08:02:49.000Z</time>
      </trkpt>
      <trkpt lat="44.31506" lon="4.21699">
        <ele>177</ele>
        <time>2026-06-11T08:03:15.000Z</time>
      </trkpt>
      <trkpt lat="44.3151" lon="4.21684">
        <ele>176</ele>
        <time>2026-06-11T08:03:19.000Z</time>
      </trkpt>
      <trkpt lat="44.31508" lon="4.2167">
        <ele>175</ele>
        <time>2026-06-11T08:03:23.000Z</time>
      </trkpt>
    </trkseg>
  </trk>
</gpx>